sensor_id;sensor_type;location;lat;lon;timestamp;pressure;altitude;pressure_sealevel;temperature;humidity
33845;BME280;20145;43.118;25.694;2022-08-02T00:01:56;99078.38;;;25.05;49.53
33845;BME280;20145;43.118;25.694;2022-08-02T00:04:21;99076.78;;;24.91;49.25
33845;BME280;20145;43.118;25.694;2022-08-02T00:06:47;99078.56;;;24.80;49.51
33845;BME280;20145;43.118;25.694;2022-08-02T00:09:13;99076.16;;;24.77;49.19
33845;BME280;20145;43.118;25.694;2022-08-02T00:11:39;99082.50;;;24.74;50.06
33845;BME280;20145;43.118;25.694;2022-08-02T00:14:05;99092.13;;;24.75;49.62
33845;BME280;20145;43.118;25.694;2022-08-02T00:16:30;99076.84;;;24.67;49.97
33845;BME280;20145;43.118;25.694;2022-08-02T00:18:56;99075.63;;;24.60;50.04
33845;BME280;20145;43.118;25.694;2022-08-02T00:21:21;99089.66;;;24.61;50.17
33845;BME280;20145;43.118;25.694;2022-08-02T00:23:47;99075.34;;;24.52;50.27
33845;BME280;20145;43.118;25.694;2022-08-02T00:26:13;99089.41;;;24.53;50.28
33845;BME280;20145;43.118;25.694;2022-08-02T00:28:38;99075.75;;;24.35;51.02
33845;BME280;20145;43.118;25.694;2022-08-02T00:31:04;99080.53;;;24.30;51.19
33845;BME280;20145;43.118;25.694;2022-08-02T00:33:29;99083.44;;;24.38;50.73
33845;BME280;20145;43.118;25.694;2022-08-02T00:35:55;99091.84;;;24.43;51.80
33845;BME280;20145;43.118;25.694;2022-08-02T00:38:21;99097.81;;;24.34;51.08
33845;BME280;20145;43.118;25.694;2022-08-02T00:40:47;99103.09;;;24.34;52.54
33845;BME280;20145;43.118;25.694;2022-08-02T00:43:13;99098.19;;;24.40;51.40
33845;BME280;20145;43.118;25.694;2022-08-02T00:45:40;99105.00;;;24.32;51.52
33845;BME280;20145;43.118;25.694;2022-08-02T00:48:08;99092.03;;;24.29;51.40
33845;BME280;20145;43.118;25.694;2022-08-02T00:50:35;99099.94;;;24.29;52.18
33845;BME280;20145;43.118;25.694;2022-08-02T00:53:01;99095.13;;;24.22;51.59
33845;BME280;20145;43.118;25.694;2022-08-02T00:55:27;99097.72;;;24.11;52.60
33845;BME280;20145;43.118;25.694;2022-08-02T00:57:53;99089.16;;;24.08;51.95
33845;BME280;20145;43.118;25.694;2022-08-02T01:00:19;99082.56;;;24.02;53.11
33845;BME280;20145;43.118;25.694;2022-08-02T01:02:45;99095.78;;;24.13;53.45
33845;BME280;20145;43.118;25.694;2022-08-02T01:05:11;99090.97;;;24.07;53.60
33845;BME280;20145;43.118;25.694;2022-08-02T01:07:37;99087.28;;;24.10;53.22
33845;BME280;20145;43.118;25.694;2022-08-02T01:10:03;99097.72;;;24.11;52.88
33845;BME280;20145;43.118;25.694;2022-08-02T01:12:29;99094.06;;;24.01;52.97
33845;BME280;20145;43.118;25.694;2022-08-02T01:14:58;99061.31;;;23.92;53.45
33845;BME280;20145;43.118;25.694;2022-08-02T01:28:27;99100.78;;;24.05;53.35
33845;BME280;20145;43.118;25.694;2022-08-02T01:31:25;99096.56;;;24.02;53.75
33845;BME280;20145;43.118;25.694;2022-08-02T01:36:55;99084.69;;;23.97;54.38
33845;BME280;20145;43.118;25.694;2022-08-02T01:39:24;99091.53;;;23.99;53.05
33845;BME280;20145;43.118;25.694;2022-08-02T01:41:52;99094.28;;;23.98;53.33
33845;BME280;20145;43.118;25.694;2022-08-02T01:44:20;99079.31;;;23.98;53.41
33845;BME280;20145;43.118;25.694;2022-08-02T01:46:48;99084.13;;;24.04;52.58
33845;BME280;20145;43.118;25.694;2022-08-02T01:49:17;99073.81;;;24.01;53.47
33845;BME280;20145;43.118;25.694;2022-08-02T01:51:46;99082.00;;;24.10;52.97
33845;BME280;20145;43.118;25.694;2022-08-02T01:54:32;99084.56;;;23.98;53.08
33845;BME280;20145;43.118;25.694;2022-08-02T01:57:00;99083.84;;;23.96;53.49
33845;BME280;20145;43.118;25.694;2022-08-02T01:59:28;99086.47;;;23.96;52.91
33845;BME280;20145;43.118;25.694;2022-08-02T02:01:57;99088.50;;;23.93;53.23
33845;BME280;20145;43.118;25.694;2022-08-02T02:04:25;99087.66;;;23.92;54.34
33845;BME280;20145;43.118;25.694;2022-08-02T02:06:54;99079.25;;;23.87;53.80
33845;BME280;20145;43.118;25.694;2022-08-02T02:09:21;99091.97;;;23.93;54.42
33845;BME280;20145;43.118;25.694;2022-08-02T02:11:50;99080.41;;;23.83;53.68
33845;BME280;20145;43.118;25.694;2022-08-02T02:14:16;99090.34;;;23.67;54.42
33845;BME280;20145;43.118;25.694;2022-08-02T02:16:44;99084.97;;;23.55;55.07
33845;BME280;20145;43.118;25.694;2022-08-02T02:19:11;99099.81;;;23.69;54.93
33845;BME280;20145;43.118;25.694;2022-08-02T02:21:40;99092.66;;;23.71;54.70
33845;BME280;20145;43.118;25.694;2022-08-02T02:24:06;99101.09;;;23.76;54.95
33845;BME280;20145;43.118;25.694;2022-08-02T02:26:33;99095.41;;;23.70;55.21
33845;BME280;20145;43.118;25.694;2022-08-02T02:29:04;99102.44;;;23.69;54.99
33845;BME280;20145;43.118;25.694;2022-08-02T02:31:35;99109.31;;;23.72;55.31
33845;BME280;20145;43.118;25.694;2022-08-02T02:34:07;99109.63;;;23.67;55.21
33845;BME280;20145;43.118;25.694;2022-08-02T02:36:36;99107.41;;;23.74;55.24
33845;BME280;20145;43.118;25.694;2022-08-02T02:39:05;99105.41;;;23.65;54.96
33845;BME280;20145;43.118;25.694;2022-08-02T02:41:32;99110.47;;;23.55;55.10
33845;BME280;20145;43.118;25.694;2022-08-02T02:44:01;99099.63;;;23.47;55.63
33845;BME280;20145;43.118;25.694;2022-08-02T02:46:31;99114.16;;;23.52;55.63
33845;BME280;20145;43.118;25.694;2022-08-02T02:48:59;99114.06;;;23.54;54.85
33845;BME280;20145;43.118;25.694;2022-08-02T02:51:25;99112.81;;;23.47;56.00
33845;BME280;20145;43.118;25.694;2022-08-02T02:53:51;99107.66;;;23.45;55.59
33845;BME280;20145;43.118;25.694;2022-08-02T02:56:18;99115.34;;;23.48;56.03
33845;BME280;20145;43.118;25.694;2022-08-02T02:58:45;99114.16;;;23.52;56.03
33845;BME280;20145;43.118;25.694;2022-08-02T03:01:12;99124.59;;;23.54;55.45
33845;BME280;20145;43.118;25.694;2022-08-02T03:04:06;99122.50;;;23.46;55.28
33845;BME280;20145;43.118;25.694;2022-08-02T03:06:32;99123.25;;;23.35;54.81
33845;BME280;20145;43.118;25.694;2022-08-02T03:09:00;99136.53;;;23.21;56.29
33845;BME280;20145;43.118;25.694;2022-08-02T03:11:27;99141.00;;;22.93;56.64
33845;BME280;20145;43.118;25.694;2022-08-02T03:13:58;99135.28;;;22.74;57.21
33845;BME280;20145;43.118;25.694;2022-08-02T03:16:25;99144.00;;;22.75;58.16
33845;BME280;20145;43.118;25.694;2022-08-02T03:18:54;99139.22;;;22.81;58.44
33845;BME280;20145;43.118;25.694;2022-08-02T03:21:20;99148.88;;;22.81;57.45
33845;BME280;20145;43.118;25.694;2022-08-02T03:23:46;99149.81;;;22.80;57.14
33845;BME280;20145;43.118;25.694;2022-08-02T03:26:12;99139.59;;;22.75;57.36
33845;BME280;20145;43.118;25.694;2022-08-02T03:28:39;99144.13;;;22.73;58.40
33845;BME280;20145;43.118;25.694;2022-08-02T03:31:04;99149.63;;;22.83;58.53
33845;BME280;20145;43.118;25.694;2022-08-02T03:33:31;99161.22;;;22.93;58.66
33845;BME280;20145;43.118;25.694;2022-08-02T03:36:00;99167.47;;;23.05;58.14
33845;BME280;20145;43.118;25.694;2022-08-02T03:38:27;99170.44;;;23.13;58.44
33845;BME280;20145;43.118;25.694;2022-08-02T03:40:55;99167.16;;;23.22;58.14
33845;BME280;20145;43.118;25.694;2022-08-02T03:43:22;99175.59;;;23.27;58.55
33845;BME280;20145;43.118;25.694;2022-08-02T03:45:49;99167.47;;;23.30;58.12
33845;BME280;20145;43.118;25.694;2022-08-02T03:48:16;99177.84;;;23.33;58.44
33845;BME280;20145;43.118;25.694;2022-08-02T03:50:42;99178.66;;;23.34;58.46
33845;BME280;20145;43.118;25.694;2022-08-02T03:53:09;99182.44;;;23.30;58.99
33845;BME280;20145;43.118;25.694;2022-08-02T03:55:38;99174.22;;;23.09;59.90
33845;BME280;20145;43.118;25.694;2022-08-02T03:58:05;99187.47;;;23.07;60.03
33845;BME280;20145;43.118;25.694;2022-08-02T04:00:31;99193.38;;;22.98;60.58
33845;BME280;20145;43.118;25.694;2022-08-02T04:02:56;99188.78;;;22.87;60.70
33845;BME280;20145;43.118;25.694;2022-08-02T04:05:23;99198.34;;;22.88;61.23
33845;BME280;20145;43.118;25.694;2022-08-02T04:07:49;99189.63;;;22.88;61.13
33845;BME280;20145;43.118;25.694;2022-08-02T04:10:15;99192.69;;;22.94;61.65
33845;BME280;20145;43.118;25.694;2022-08-02T04:12:41;99192.31;;;23.01;61.20
33845;BME280;20145;43.118;25.694;2022-08-02T04:15:08;99190.09;;;23.07;61.39
33845;BME280;20145;43.118;25.694;2022-08-02T04:17:42;99182.00;;;23.10;61.30
33845;BME280;20145;43.118;25.694;2022-08-02T04:20:19;99197.59;;;23.13;61.22
33845;BME280;20145;43.118;25.694;2022-08-02T04:22:56;99195.16;;;23.10;61.18
33845;BME280;20145;43.118;25.694;2022-08-02T04:25:24;99203.78;;;23.00;62.41
33845;BME280;20145;43.118;25.694;2022-08-02T04:27:50;99199.47;;;22.99;62.63
33845;BME280;20145;43.118;25.694;2022-08-02T04:30:17;99203.38;;;23.06;62.33
33845;BME280;20145;43.118;25.694;2022-08-02T04:32:44;99208.66;;;23.19;62.69
33845;BME280;20145;43.118;25.694;2022-08-02T04:35:10;99213.00;;;23.32;61.51
33845;BME280;20145;43.118;25.694;2022-08-02T04:37:37;99207.53;;;23.48;61.02
33845;BME280;20145;43.118;25.694;2022-08-02T04:40:13;99209.97;;;23.64;60.26
33845;BME280;20145;43.118;25.694;2022-08-02T04:42:40;99205.59;;;24.14;59.57
33845;BME280;20145;43.118;25.694;2022-08-02T04:45:06;99208.31;;;24.49;58.66
33845;BME280;20145;43.118;25.694;2022-08-02T04:47:33;99206.66;;;24.48;54.92
33845;BME280;20145;43.118;25.694;2022-08-02T04:49:59;99203.69;;;24.40;55.03
33845;BME280;20145;43.118;25.694;2022-08-02T04:52:25;99214.56;;;24.48;54.55
33845;BME280;20145;43.118;25.694;2022-08-02T04:54:51;99225.06;;;24.61;54.46
33845;BME280;20145;43.118;25.694;2022-08-02T04:57:19;99217.44;;;24.69;53.55
33845;BME280;20145;43.118;25.694;2022-08-02T05:00:03;99221.09;;;24.91;53.32
33845;BME280;20145;43.118;25.694;2022-08-02T05:02:29;99220.41;;;25.24;52.77
33845;BME280;20145;43.118;25.694;2022-08-02T05:04:54;99227.34;;;25.72;50.65
33845;BME280;20145;43.118;25.694;2022-08-02T05:07:20;99221.81;;;25.64;50.97
33845;BME280;20145;43.118;25.694;2022-08-02T05:09:45;99224.09;;;25.79;50.23
33845;BME280;20145;43.118;25.694;2022-08-02T05:12:11;99216.59;;;25.28;51.97
33845;BME280;20145;43.118;25.694;2022-08-02T05:14:37;99213.41;;;25.70;51.10
33845;BME280;20145;43.118;25.694;2022-08-02T05:17:02;99219.19;;;26.09;50.30
33845;BME280;20145;43.118;25.694;2022-08-02T05:19:28;99189.25;;;26.19;49.34
33845;BME280;20145;43.118;25.694;2022-08-02T05:21:53;99212.59;;;26.46;48.90
33845;BME280;20145;43.118;25.694;2022-08-02T05:24:19;99218.03;;;26.56;49.13
33845;BME280;20145;43.118;25.694;2022-08-02T05:26:44;99216.69;;;26.62;48.51
33845;BME280;20145;43.118;25.694;2022-08-02T05:29:10;99229.00;;;26.40;48.69
33845;BME280;20145;43.118;25.694;2022-08-02T05:31:36;99229.00;;;26.29;49.16
33845;BME280;20145;43.118;25.694;2022-08-02T05:34:01;99242.34;;;26.39;49.29
33845;BME280;20145;43.118;25.694;2022-08-02T05:36:27;99228.03;;;26.53;49.14
33845;BME280;20145;43.118;25.694;2022-08-02T05:38:52;99239.31;;;26.55;48.55
33845;BME280;20145;43.118;25.694;2022-08-02T05:41:19;99233.69;;;26.37;49.28
33845;BME280;20145;43.118;25.694;2022-08-02T05:43:47;99225.88;;;26.35;49.49
33845;BME280;20145;43.118;25.694;2022-08-02T05:46:13;99234.16;;;26.42;49.85
33845;BME280;20145;43.118;25.694;2022-08-02T05:48:39;99242.81;;;26.33;49.04
33845;BME280;20145;43.118;25.694;2022-08-02T05:51:09;99250.53;;;26.13;48.73
33845;BME280;20145;43.118;25.694;2022-08-02T05:56:23;99248.53;;;25.94;48.86
33845;BME280;20145;43.118;25.694;2022-08-02T05:58:59;99248.44;;;25.60;50.19
33845;BME280;20145;43.118;25.694;2022-08-02T06:01:32;99243.53;;;25.45;50.83
33845;BME280;20145;43.118;25.694;2022-08-02T06:03:59;99250.31;;;25.94;49.79
33845;BME280;20145;43.118;25.694;2022-08-02T06:06:28;99264.00;;;26.10;49.60
33845;BME280;20145;43.118;25.694;2022-08-02T06:09:03;99267.16;;;25.93;50.01
33845;BME280;20145;43.118;25.694;2022-08-02T06:11:36;99259.69;;;25.87;49.90
33845;BME280;20145;43.118;25.694;2022-08-02T06:14:05;99278.81;;;26.01;49.25
33845;BME280;20145;43.118;25.694;2022-08-02T06:16:32;99283.59;;;25.96;49.27
33845;BME280;20145;43.118;25.694;2022-08-02T06:18:59;99277.47;;;26.07;49.22
33845;BME280;20145;43.118;25.694;2022-08-02T06:21:26;99257.28;;;26.17;49.01
33845;BME280;20145;43.118;25.694;2022-08-02T06:23:52;99269.19;;;26.23;48.14
33845;BME280;20145;43.118;25.694;2022-08-02T06:26:19;99279.16;;;26.31;49.21
33845;BME280;20145;43.118;25.694;2022-08-02T06:28:46;99286.97;;;26.10;49.69
33845;BME280;20145;43.118;25.694;2022-08-02T06:31:14;99274.09;;;25.94;49.53
33845;BME280;20145;43.118;25.694;2022-08-02T06:33:40;99274.69;;;25.75;49.75
33845;BME280;20145;43.118;25.694;2022-08-02T06:36:37;99285.31;;;25.97;49.52
33845;BME280;20145;43.118;25.694;2022-08-02T06:39:10;99286.72;;;26.24;49.01
33845;BME280;20145;43.118;25.694;2022-08-02T06:41:40;99287.72;;;26.00;49.61
33845;BME280;20145;43.118;25.694;2022-08-02T06:44:08;99288.19;;;25.83;50.14
33845;BME280;20145;43.118;25.694;2022-08-02T06:46:34;99273.22;;;25.59;50.79
33845;BME280;20145;43.118;25.694;2022-08-02T06:49:01;99281.28;;;25.58;51.32
33845;BME280;20145;43.118;25.694;2022-08-02T06:51:27;99265.78;;;25.65;50.28
33845;BME280;20145;43.118;25.694;2022-08-02T06:53:53;99283.56;;;25.74;50.78
33845;BME280;20145;43.118;25.694;2022-08-02T06:56:19;99261.91;;;25.57;50.48
33845;BME280;20145;43.118;25.694;2022-08-02T06:58:45;99283.38;;;25.42;51.48
33845;BME280;20145;43.118;25.694;2022-08-02T07:01:11;99264.41;;;25.12;52.12
33845;BME280;20145;43.118;25.694;2022-08-02T07:03:38;99244.31;;;25.23;51.98
33845;BME280;20145;43.118;25.694;2022-08-02T07:06:06;99282.69;;;25.62;51.04
33845;BME280;20145;43.118;25.694;2022-08-02T07:08:34;99259.47;;;25.43;51.51
33845;BME280;20145;43.118;25.694;2022-08-02T07:11:06;99271.41;;;25.60;51.40
33845;BME280;20145;43.118;25.694;2022-08-02T07:13:33;99276.34;;;25.76;50.72
33845;BME280;20145;43.118;25.694;2022-08-02T07:15:59;99264.47;;;25.81;50.19
33845;BME280;20145;43.118;25.694;2022-08-02T07:18:25;99271.56;;;25.70;50.71
33845;BME280;20145;43.118;25.694;2022-08-02T07:20:51;99266.84;;;25.62;50.77
33845;BME280;20145;43.118;25.694;2022-08-02T07:23:17;99271.31;;;25.73;50.27
33845;BME280;20145;43.118;25.694;2022-08-02T07:25:43;99281.69;;;25.87;49.83
33845;BME280;20145;43.118;25.694;2022-08-02T07:28:10;99260.06;;;25.93;50.20
33845;BME280;20145;43.118;25.694;2022-08-02T07:30:36;99264.97;;;26.20;49.43
33845;BME280;20145;43.118;25.694;2022-08-02T07:33:03;99271.00;;;26.34;49.71
33845;BME280;20145;43.118;25.694;2022-08-02T07:35:28;99275.06;;;26.38;49.47
33845;BME280;20145;43.118;25.694;2022-08-02T07:37:54;99271.94;;;26.44;50.25
33845;BME280;20145;43.118;25.694;2022-08-02T07:40:20;99260.38;;;26.45;49.66
33845;BME280;20145;43.118;25.694;2022-08-02T07:42:51;99256.75;;;26.46;48.47
33845;BME280;20145;43.118;25.694;2022-08-02T07:45:19;99281.31;;;26.59;48.95
33845;BME280;20145;43.118;25.694;2022-08-02T07:47:45;99278.44;;;26.51;49.09
33845;BME280;20145;43.118;25.694;2022-08-02T07:50:11;99276.53;;;26.53;48.75
33845;BME280;20145;43.118;25.694;2022-08-02T07:52:40;99266.41;;;26.47;49.13
33845;BME280;20145;43.118;25.694;2022-08-02T07:55:07;99273.63;;;26.56;49.19
33845;BME280;20145;43.118;25.694;2022-08-02T07:57:33;99267.03;;;26.51;49.05
33845;BME280;20145;43.118;25.694;2022-08-02T07:59:58;99279.13;;;26.64;49.07
33845;BME280;20145;43.118;25.694;2022-08-02T08:02:24;99278.38;;;26.74;48.94
33845;BME280;20145;43.118;25.694;2022-08-02T08:05:08;99279.56;;;26.81;48.99
33845;BME280;20145;43.118;25.694;2022-08-02T08:07:34;99265.03;;;26.75;48.51
33845;BME280;20145;43.118;25.694;2022-08-02T08:10:00;99265.09;;;26.85;48.19
33845;BME280;20145;43.118;25.694;2022-08-02T08:12:26;99275.22;;;26.91;48.19
33845;BME280;20145;43.118;25.694;2022-08-02T08:14:52;99278.03;;;26.78;48.38
33845;BME280;20145;43.118;25.694;2022-08-02T08:17:18;99249.50;;;26.70;49.14
33845;BME280;20145;43.118;25.694;2022-08-02T08:19:44;99264.41;;;26.83;48.72
33845;BME280;20145;43.118;25.694;2022-08-02T08:22:09;99262.00;;;26.80;48.58
33845;BME280;20145;43.118;25.694;2022-08-02T08:24:35;99260.44;;;26.88;47.98
33845;BME280;20145;43.118;25.694;2022-08-02T08:27:00;99269.22;;;27.10;48.62
33845;BME280;20145;43.118;25.694;2022-08-02T08:29:27;99261.59;;;27.28;48.06
33845;BME280;20145;43.118;25.694;2022-08-02T08:31:52;99278.53;;;27.36;47.80
33845;BME280;20145;43.118;25.694;2022-08-02T08:34:18;99261.13;;;27.23;47.68
33845;BME280;20145;43.118;25.694;2022-08-02T08:36:44;99254.56;;;27.38;47.57
33845;BME280;20145;43.118;25.694;2022-08-02T08:39:09;99258.53;;;27.32;47.61
33845;BME280;20145;43.118;25.694;2022-08-02T08:41:35;99270.22;;;27.41;47.62
33845;BME280;20145;43.118;25.694;2022-08-02T08:44:01;99258.34;;;27.45;47.81
33845;BME280;20145;43.118;25.694;2022-08-02T08:46:32;99247.81;;;27.34;47.43
33845;BME280;20145;43.118;25.694;2022-08-02T08:49:27;99269.22;;;27.63;47.59
33845;BME280;20145;43.118;25.694;2022-08-02T08:51:55;99262.38;;;27.61;47.56
33845;BME280;20145;43.118;25.694;2022-08-02T08:54:26;99274.19;;;27.77;46.94
33845;BME280;20145;43.118;25.694;2022-08-02T08:56:53;99247.59;;;27.68;46.06
33845;BME280;20145;43.118;25.694;2022-08-02T08:59:19;99272.63;;;27.96;46.27
33845;BME280;20145;43.118;25.694;2022-08-02T09:01:45;99269.00;;;27.97;45.12
33845;BME280;20145;43.118;25.694;2022-08-02T09:04:11;99259.63;;;27.93;45.47
33845;BME280;20145;43.118;25.694;2022-08-02T09:06:40;99253.94;;;27.97;45.46
33845;BME280;20145;43.118;25.694;2022-08-02T09:09:06;99251.28;;;27.97;45.81
33845;BME280;20145;43.118;25.694;2022-08-02T09:11:32;99242.66;;;28.05;45.88
33845;BME280;20145;43.118;25.694;2022-08-02T09:13:59;99256.44;;;28.30;45.29
33845;BME280;20145;43.118;25.694;2022-08-02T09:16:33;99246.22;;;28.35;44.71
33845;BME280;20145;43.118;25.694;2022-08-02T09:19:15;99245.44;;;28.54;44.51
33845;BME280;20145;43.118;25.694;2022-08-02T09:21:42;99249.94;;;28.73;44.71
33845;BME280;20145;43.118;25.694;2022-08-02T09:24:22;99240.88;;;28.85;42.56
33845;BME280;20145;43.118;25.694;2022-08-02T09:26:49;99257.78;;;28.84;43.37
33845;BME280;20145;43.118;25.694;2022-08-02T09:29:16;99236.56;;;28.74;43.77
33845;BME280;20145;43.118;25.694;2022-08-02T09:31:42;99251.34;;;28.67;43.59
33845;BME280;20145;43.118;25.694;2022-08-02T09:34:09;99228.13;;;28.50;42.91
33845;BME280;20145;43.118;25.694;2022-08-02T09:36:45;99248.53;;;28.59;42.98
33845;BME280;20145;43.118;25.694;2022-08-02T09:39:15;99255.25;;;28.73;42.51
33845;BME280;20145;43.118;25.694;2022-08-02T09:41:43;99239.34;;;28.82;42.02
33845;BME280;20145;43.118;25.694;2022-08-02T09:44:11;99244.97;;;29.08;42.35
33845;BME280;20145;43.118;25.694;2022-08-02T09:46:44;99243.13;;;29.28;42.31
33845;BME280;20145;43.118;25.694;2022-08-02T09:49:17;99235.00;;;29.20;41.38
33845;BME280;20145;43.118;25.694;2022-08-02T09:51:50;99236.09;;;29.37;41.36
33845;BME280;20145;43.118;25.694;2022-08-02T09:54:23;99243.38;;;29.54;41.98
33845;BME280;20145;43.118;25.694;2022-08-02T09:56:57;99237.50;;;29.41;39.90
33845;BME280;20145;43.118;25.694;2022-08-02T09:59:24;99235.69;;;29.42;40.56
33845;BME280;20145;43.118;25.694;2022-08-02T10:01:50;99228.56;;;29.32;39.68
33845;BME280;20145;43.118;25.694;2022-08-02T10:04:20;99230.97;;;29.16;39.08
33845;BME280;20145;43.118;25.694;2022-08-02T10:06:46;99235.31;;;29.17;40.08
33845;BME280;20145;43.118;25.694;2022-08-02T10:09:14;99226.22;;;29.29;40.00
33845;BME280;20145;43.118;25.694;2022-08-02T10:11:40;99214.72;;;29.29;39.56
33845;BME280;20145;43.118;25.694;2022-08-02T10:14:09;99222.38;;;29.42;40.57
33845;BME280;20145;43.118;25.694;2022-08-02T10:16:37;99230.00;;;29.27;40.58
33845;BME280;20145;43.118;25.694;2022-08-02T10:19:03;99225.66;;;29.06;40.08
33845;BME280;20145;43.118;25.694;2022-08-02T10:21:37;99222.28;;;29.04;39.70
33845;BME280;20145;43.118;25.694;2022-08-02T10:24:22;99215.44;;;29.21;40.86
33845;BME280;20145;43.118;25.694;2022-08-02T10:26:50;99218.19;;;29.39;40.46
33845;BME280;20145;43.118;25.694;2022-08-02T10:29:18;99217.59;;;29.55;40.25
33845;BME280;20145;43.118;25.694;2022-08-02T10:32:05;99213.81;;;29.67;40.27
33845;BME280;20145;43.118;25.694;2022-08-02T10:34:36;99219.81;;;29.60;39.58
33845;BME280;20145;43.118;25.694;2022-08-02T10:37:05;99212.66;;;29.79;40.26
33845;BME280;20145;43.118;25.694;2022-08-02T10:39:43;99217.50;;;29.84;38.68
33845;BME280;20145;43.118;25.694;2022-08-02T10:42:09;99213.38;;;29.72;38.14
33845;BME280;20145;43.118;25.694;2022-08-02T10:44:36;99201.22;;;29.97;38.81
33845;BME280;20145;43.118;25.694;2022-08-02T10:52:17;99204.41;;;29.73;39.38
33845;BME280;20145;43.118;25.694;2022-08-02T10:54:50;99203.53;;;29.25;40.20
33845;BME280;20145;43.118;25.694;2022-08-02T10:59:55;99190.16;;;29.07;40.31
33845;BME280;20145;43.118;25.694;2022-08-02T11:02:45;99207.97;;;29.34;39.41
33845;BME280;20145;43.118;25.694;2022-08-02T11:07:48;99202.59;;;30.01;38.56
33845;BME280;20145;43.118;25.694;2022-08-02T11:10:29;99198.28;;;30.18;39.95
33845;BME280;20145;43.118;25.694;2022-08-02T11:13:13;99192.50;;;30.50;37.98
33845;BME280;20145;43.118;25.694;2022-08-02T11:18:18;99198.28;;;30.28;37.63
33845;BME280;20145;43.118;25.694;2022-08-02T11:20:44;99195.47;;;30.01;38.73
33845;BME280;20145;43.118;25.694;2022-08-02T11:23:33;99194.59;;;29.73;38.74
33845;BME280;20145;43.118;25.694;2022-08-02T11:25:59;99187.25;;;29.48;37.84
33845;BME280;20145;43.118;25.694;2022-08-02T11:28:25;99189.56;;;29.70;37.54
33845;BME280;20145;43.118;25.694;2022-08-02T11:31:00;99188.63;;;29.99;36.97
33845;BME280;20145;43.118;25.694;2022-08-02T11:33:33;99188.06;;;30.23;37.02
33845;BME280;20145;43.118;25.694;2022-08-02T11:36:04;99188.72;;;30.53;36.32
33845;BME280;20145;43.118;25.694;2022-08-02T11:38:29;99183.84;;;30.84;36.10
33845;BME280;20145;43.118;25.694;2022-08-02T11:40:55;99172.28;;;30.75;36.29
33845;BME280;20145;43.118;25.694;2022-08-02T11:43:22;99172.41;;;31.09;35.73
33845;BME280;20145;43.118;25.694;2022-08-02T11:45:49;99173.06;;;30.85;35.35
33845;BME280;20145;43.118;25.694;2022-08-02T11:48:36;99173.44;;;31.17;35.54
33845;BME280;20145;43.118;25.694;2022-08-02T11:53:46;99173.19;;;30.48;35.91
33845;BME280;20145;43.118;25.694;2022-08-02T11:56:14;99171.22;;;30.05;37.16
33845;BME280;20145;43.118;25.694;2022-08-02T11:58:40;99170.00;;;30.27;37.20
33845;BME280;20145;43.118;25.694;2022-08-02T12:01:06;99181.31;;;30.29;37.37
33845;BME280;20145;43.118;25.694;2022-08-02T12:03:36;99173.97;;;30.40;36.45
33845;BME280;20145;43.118;25.694;2022-08-02T12:06:03;99168.75;;;30.57;36.51
33845;BME280;20145;43.118;25.694;2022-08-02T12:08:35;99145.28;;;30.52;36.70
33845;BME280;20145;43.118;25.694;2022-08-02T12:11:02;99173.06;;;30.85;35.77
33845;BME280;20145;43.118;25.694;2022-08-02T12:13:43;99170.34;;;31.03;34.69
33845;BME280;20145;43.118;25.694;2022-08-02T12:16:11;99170.38;;;31.29;34.00
33845;BME280;20145;43.118;25.694;2022-08-02T12:18:55;99169.63;;;31.71;33.98
33845;BME280;20145;43.118;25.694;2022-08-02T12:21:39;99171.13;;;31.40;34.48
33845;BME280;20145;43.118;25.694;2022-08-02T12:24:05;99163.84;;;31.24;33.92
33845;BME280;20145;43.118;25.694;2022-08-02T12:26:42;99167.59;;;31.13;34.33
33845;BME280;20145;43.118;25.694;2022-08-02T12:29:08;99171.84;;;31.24;34.70
33845;BME280;20145;43.118;25.694;2022-08-02T12:31:46;99172.97;;;30.95;34.89
33845;BME280;20145;43.118;25.694;2022-08-02T12:34:14;99165.34;;;31.00;35.70
33845;BME280;20145;43.118;25.694;2022-08-02T12:36:42;99170.66;;;31.00;34.62
33845;BME280;20145;43.118;25.694;2022-08-02T12:39:12;99160.78;;;30.93;34.94
33845;BME280;20145;43.118;25.694;2022-08-02T12:41:38;99163.03;;;31.05;35.53
33845;BME280;20145;43.118;25.694;2022-08-02T12:44:14;99156.25;;;31.11;34.77
33845;BME280;20145;43.118;25.694;2022-08-02T12:46:39;99161.69;;;31.27;34.24
33845;BME280;20145;43.118;25.694;2022-08-02T12:49:15;99158.84;;;31.21;33.78
33845;BME280;20145;43.118;25.694;2022-08-02T12:51:41;99143.28;;;31.42;34.33
33845;BME280;20145;43.118;25.694;2022-08-02T12:54:21;99156.63;;;31.68;34.45
33845;BME280;20145;43.118;25.694;2022-08-02T12:56:47;99141.25;;;32.05;34.57
33845;BME280;20145;43.118;25.694;2022-08-02T12:59:15;99153.66;;;32.30;33.20
33845;BME280;20145;43.118;25.694;2022-08-02T13:01:40;99146.47;;;32.31;32.77
33845;BME280;20145;43.118;25.694;2022-08-02T13:04:06;99150.63;;;32.17;33.15
33845;BME280;20145;43.118;25.694;2022-08-02T13:06:32;99149.75;;;32.00;33.19
33845;BME280;20145;43.118;25.694;2022-08-02T13:08:59;99154.06;;;31.93;33.22
33845;BME280;20145;43.118;25.694;2022-08-02T13:11:24;99154.16;;;31.83;33.83
33845;BME280;20145;43.118;25.694;2022-08-02T13:13:51;99152.53;;;31.90;33.96
33845;BME280;20145;43.118;25.694;2022-08-02T13:16:18;99156.16;;;31.81;32.71
33845;BME280;20145;43.118;25.694;2022-08-02T13:18:43;99162.41;;;31.64;33.77
33845;BME280;20145;43.118;25.694;2022-08-02T13:21:12;99164.31;;;31.45;34.34
33845;BME280;20145;43.118;25.694;2022-08-02T13:23:37;99168.28;;;31.15;33.54
33845;BME280;20145;43.118;25.694;2022-08-02T13:26:04;99149.38;;;30.47;35.38
33845;BME280;20145;43.118;25.694;2022-08-02T13:28:29;99163.53;;;30.47;35.44
33845;BME280;20145;43.118;25.694;2022-08-02T13:30:55;99163.09;;;30.52;36.18